This is the latest recevied weather packets stored in our database for station/object F4BQN-15. If no packets are shown the sender has not sent any weather packets the latest 10 day(s).
| Time | Temp. | Humidity | Pressure | Rain* | Wind** | Luminosity | Snow |
|---|---|---|---|---|---|---|---|
| 1778174133 | 27.78° C | 42% | 984.6 hPa | - | - | - | - |
| 1778173233 | 29.44° C | 41% | 984.5 hPa | - | - | - | - |
| 1778172333 | 32.22° C | 40% | 984.6 hPa | - | - | - | - |
| 1778171433 | 32.78° C | 41% | 984.5 hPa | - | - | - | - |
| 1778170530 | 36.67° C | 39% | 984.5 hPa | - | - | - | - |
| 1778169630 | 38.89° C | 36% | 984.5 hPa | - | - | - | - |
| 1778168729 | 38.33° C | 37% | 984.5 hPa | - | - | - | - |
| 1778167826 | 35° C | 40% | 984.6 hPa | - | - | - | - |
| 1778166925 | 41.11° C | 36% | 984.7 hPa | - | - | - | - |
| 1778166025 | 40.56° C | 36% | 984.9 hPa | - | - | - | - |
| 1778165125 | 38.89° C | 38% | 985.1 hPa | - | - | - | - |
| 1778164225 | 34.44° C | 40% | 985.2 hPa | - | - | - | - |
| 1778163325 | 32.22° C | 42% | 985.5 hPa | - | - | - | - |
| 1778162425 | 35° C | 39% | 985.5 hPa | - | - | - | - |
| 1778161525 | 30.56° C | 41% | 985.9 hPa | - | - | - | - |
| 1778160625 | 28.33° C | 43% | 986.1 hPa | - | - | - | - |
| 1778159725 | 26.11° C | 44% | 986.2 hPa | - | - | - | - |
| 1778158824 | 24.44° C | 45% | 986.3 hPa | - | - | - | - |
| 1778157924 | 24.44° C | 45% | 986.5 hPa | - | - | - | - |
| 1778157024 | 25° C | 45% | 986.3 hPa | - | - | - | - |
| 1778156124 | 26.67° C | 43% | 986.4 hPa | - | - | - | - |
| 1778155224 | 22.78° C | 45% | 986.6 hPa | - | - | - | - |
| 1778154324 | 23.33° C | 45% | 986.7 hPa | - | - | - | - |
| 1778153424 | 23.33° C | 45% | 986.7 hPa | - | - | - | - |
| 1778152524 | 23.33° C | 45% | 987 hPa | - | - | - | - |
* Rain since midnight (hover to see other rain measurements)
** Current wind speed in m/s (hover to see current wind gust speed)